Time;durP1;ratioP1;P1;durP2;ratioP2;P2;SDS_P1;SDS_P2;PMS_P1;PMS_P2;Temp;Humidity;BMP_temperature;BMP_pressure;BME280_temperature;BME280_humidity;BME280_pressure;Samples;Min_cycle;Max_cycle;Signal;HPM_P1;HPM_P2
2021/11/27 00:00:50;;;;;;;1.08;0.95;;;;;17.50;97303.00;;;;2077193;28;20268;-45
2021/11/27 00:01:50;;;;;;;0.90;0.80;;;;;17.50;97300.00;;;;2068403;28;20268;-45
2021/11/27 00:02:51;;;;;;;1.00;0.90;;;;;17.50;97310.00;;;;2071559;28;20636;-46
2021/11/27 00:03:54;;;;;;;0.90;0.80;;;;;17.50;97295.00;;;;2069878;28;20714;-48
2021/11/27 00:04:54;;;;;;;1.10;0.88;;;;;17.50;97294.00;;;;2071248;28;20749;-44
2021/11/27 00:05:55;;;;;;;1.20;0.90;;;;;17.60;97302.00;;;;2070182;28;20215;-43
2021/11/27 00:06:55;;;;;;;1.10;1.00;;;;;17.60;97300.00;;;;2071470;28;20222;-46
2021/11/27 00:07:55;;;;;;;0.70;0.67;;;;;17.50;97299.00;;;;2070810;28;20214;-46
2021/11/27 00:08:57;;;;;;;1.10;0.83;;;;;17.60;97295.00;;;;2070828;28;20282;-46
2021/11/27 00:09:57;;;;;;;1.10;0.85;;;;;17.50;97290.00;;;;2070734;28;20268;-44
2021/11/27 00:10:59;;;;;;;1.00;0.80;;;;;17.50;97290.00;;;;2066735;28;20241;-47
2021/11/27 00:11:59;;;;;;;1.17;1.08;;;;;17.60;97296.00;;;;2070353;28;20314;-45
2021/11/27 00:13:00;;;;;;;1.17;0.90;;;;;17.50;97287.00;;;;2078123;28;20210;-46
2021/11/27 00:14:00;;;;;;;0.87;0.83;;;;;17.50;97292.00;;;;2078024;28;20247;-46
2021/11/27 00:15:01;;;;;;;1.37;1.00;;;;;17.50;97285.00;;;;2079295;28;20523;-45
2021/11/27 00:16:02;;;;;;;1.08;0.80;;;;;17.50;97304.00;;;;2078841;28;20240;-45
2021/11/27 00:17:02;;;;;;;0.80;0.73;;;;;17.50;97294.00;;;;2078729;28;20217;-45
2021/11/27 00:18:03;;;;;;;1.03;0.93;;;;;17.50;97286.00;;;;2079293;28;20952;-44
2021/11/27 00:19:04;;;;;;;1.02;0.70;;;;;17.60;97281.00;;;;2069014;28;20214;-44
2021/11/27 00:20:07;;;;;;;1.57;1.23;;;;;17.60;97284.00;;;;2071105;28;20289;-45
2021/11/27 00:21:09;;;;;;;0.95;0.85;;;;;17.60;97285.00;;;;2068601;28;20520;-47
2021/11/27 00:22:09;;;;;;;0.73;0.70;;;;;17.50;97283.00;;;;2070238;28;20225;-45
2021/11/27 00:23:10;;;;;;;0.90;0.73;;;;;17.60;97285.00;;;;2065744;28;20206;-47
2021/11/27 00:24:10;;;;;;;1.10;0.70;;;;;17.60;97277.00;;;;2070806;28;20569;-45
2021/11/27 00:25:11;;;;;;;0.80;0.70;;;;;17.60;97287.00;;;;2070969;28;20207;-48
2021/11/27 00:26:12;;;;;;;1.10;0.80;;;;;17.50;97279.00;;;;2071132;28;20214;-45
2021/11/27 00:27:13;;;;;;;0.80;0.70;;;;;17.50;97278.00;;;;2067645;28;20329;-47
2021/11/27 00:28:13;;;;;;;0.87;0.80;;;;;17.60;97277.00;;;;2070109;28;21049;-44
2021/11/27 00:29:14;;;;;;;1.00;0.80;;;;;17.50;97282.00;;;;2078242;28;20458;-44
2021/11/27 00:30:19;;;;;;;2.40;0.83;;;;;17.60;97272.00;;;;2067825;28;20221;-48
2021/11/27 00:31:23;;;;;;;1.05;0.95;;;;;17.40;97283.00;;;;2075797;28;20224;-45
2021/11/27 00:32:23;;;;;;;0.80;0.80;;;;;17.50;97279.00;;;;2079028;28;20297;-45
2021/11/27 00:33:23;;;;;;;1.70;1.00;;;;;17.50;97275.00;;;;2074211;28;20285;-45
2021/11/27 00:34:24;;;;;;;0.90;0.80;;;;;17.60;97273.00;;;;2070310;28;20222;-44
2021/11/27 00:35:24;;;;;;;0.93;0.70;;;;;17.60;97277.00;;;;2070074;28;20285;-45
2021/11/27 00:36:25;;;;;;;0.70;0.70;;;;;17.50;97271.00;;;;2071336;28;20670;-47
2021/11/27 00:37:25;;;;;;;0.93;0.83;;;;;17.60;97273.00;;;;2071013;28;20218;-45
2021/11/27 00:38:26;;;;;;;0.80;0.70;;;;;17.50;97274.00;;;;2071376;28;20234;-45
2021/11/27 00:39:27;;;;;;;1.33;1.00;;;;;17.60;97278.00;;;;2071080;28;20244;-47
2021/11/27 00:40:29;;;;;;;1.17;0.90;;;;;17.60;97278.00;;;;2070161;28;20293;-45
2021/11/27 00:41:29;;;;;;;0.80;0.77;;;;;17.60;97276.00;;;;2069925;28;20328;-48
2021/11/27 00:42:29;;;;;;;1.17;1.07;;;;;17.60;97274.00;;;;2070405;28;20237;-44
2021/11/27 00:43:30;;;;;;;1.03;0.93;;;;;17.60;97279.00;;;;2070769;28;20213;-45
2021/11/27 00:44:30;;;;;;;0.97;0.87;;;;;17.50;97277.00;;;;2071163;28;20272;-45
2021/11/27 00:45:31;;;;;;;1.00;0.90;;;;;17.50;97270.00;;;;2069339;28;20222;-45
2021/11/27 00:46:31;;;;;;;0.90;0.70;;;;;17.50;97274.00;;;;2069872;28;20661;-46
2021/11/27 00:47:32;;;;;;;0.80;0.80;;;;;17.50;97285.00;;;;2074350;28;20571;-47
2021/11/27 00:48:32;;;;;;;1.00;0.70;;;;;17.50;97280.00;;;;2068796;28;20685;-45
2021/11/27 00:49:33;;;;;;;0.70;0.60;;;;;17.50;97279.00;;;;2077824;28;20569;-45
2021/11/27 00:50:40;;;;;;;0.80;0.73;;;;;17.50;97280.00;;;;2078329;28;20209;-45
2021/11/27 00:51:41;;;;;;;0.82;0.70;;;;;17.60;97278.00;;;;2076032;28;20220;-44
2021/11/27 00:52:41;;;;;;;0.90;0.80;;;;;17.60;97275.00;;;;2070480;28;20608;-44
2021/11/27 00:53:42;;;;;;;0.90;0.70;;;;;17.60;97281.00;;;;2076979;28;20205;-46
2021/11/27 00:54:42;;;;;;;1.27;0.77;;;;;17.60;97273.00;;;;2079249;28;20611;-44
2021/11/27 00:55:42;;;;;;;0.80;0.80;;;;;17.50;97274.00;;;;2078468;28;20205;-45
2021/11/27 00:56:43;;;;;;;0.70;0.70;;;;;17.50;97280.00;;;;2072627;28;20210;-44
2021/11/27 00:57:47;;;;;;;0.87;0.60;;;;;17.60;97283.00;;;;2079084;28;20209;-45
2021/11/27 00:58:47;;;;;;;0.73;0.70;;;;;17.60;97269.00;;;;2079291;28;21162;-45
2021/11/27 00:59:48;;;;;;;1.07;0.97;;;;;17.50;97275.00;;;;2079182;28;20279;-46
2021/11/27 01:00:51;;;;;;;0.73;0.70;;;;;17.50;97275.00;;;;2078316;28;20588;-47
2021/11/27 01:01:51;;;;;;;1.00;0.90;;;;;17.50;97266.00;;;;2077469;28;20217;-46
2021/11/27 01:02:52;;;;;;;0.90;0.80;;;;;17.50;97285.00;;;;2070273;28;20208;-45
2021/11/27 01:03:52;;;;;;;1.00;0.60;;;;;17.50;97277.00;;;;2072933;28;22482;-46
2021/11/27 01:04:53;;;;;;;0.80;0.80;;;;;17.50;97284.00;;;;2078792;28;20334;-45
2021/11/27 01:05:53;;;;;;;0.90;0.60;;;;;17.50;97280.00;;;;2079217;28;20225;-45
2021/11/27 01:06:54;;;;;;;1.10;0.87;;;;;17.50;97282.00;;;;2076761;28;20256;-45
2021/11/27 01:07:54;;;;;;;0.83;0.77;;;;;17.50;97285.00;;;;2078985;28;20267;-45
2021/11/27 01:08:58;;;;;;;0.90;0.70;;;;;17.50;97276.00;;;;2079006;28;20213;-47
2021/11/27 01:09:58;;;;;;;1.10;0.90;;;;;17.50;97284.00;;;;2075643;28;20218;-44
2021/11/27 01:11:35;;;;;;;1.10;1.00;;;;;17.50;97293.00;;;;2069944;28;20238;-45
2021/11/27 01:12:36;;;;;;;0.90;0.70;;;;;17.50;97277.00;;;;2074328;28;20236;-45
2021/11/27 01:13:37;;;;;;;1.00;0.77;;;;;17.50;97279.00;;;;2078785;28;20289;-45
2021/11/27 01:14:37;;;;;;;1.52;0.80;;;;;17.50;97275.00;;;;2079217;28;20214;-45
2021/11/27 01:15:38;;;;;;;1.20;0.70;;;;;17.50;97282.00;;;;2077768;28;20213;-46
2021/11/27 01:16:40;;;;;;;1.00;0.90;;;;;17.50;97277.00;;;;2070391;28;20321;-46
2021/11/27 01:17:41;;;;;;;0.70;0.70;;;;;17.50;97282.00;;;;2070331;28;20206;-45
2021/11/27 01:18:42;;;;;;;0.80;0.80;;;;;17.50;97283.00;;;;2077508;28;20210;-45
2021/11/27 01:19:42;;;;;;;0.80;0.70;;;;;17.50;97275.00;;;;2079108;28;20288;-45
2021/11/27 01:20:46;;;;;;;0.90;0.73;;;;;17.50;97272.00;;;;2070315;28;20198;-44
2021/11/27 01:21:49;;;;;;;1.00;0.77;;;;;17.50;97282.00;;;;2070932;28;20348;-45
2021/11/27 01:22:49;;;;;;;0.93;0.75;;;;;17.50;97275.00;;;;2071007;28;20237;-46
2021/11/27 01:23:50;;;;;;;1.10;1.00;;;;;17.50;97279.00;;;;2070373;28;20720;-45
2021/11/27 01:24:53;;;;;;;0.70;0.60;;;;;17.50;97277.00;;;;2077274;28;20210;-45
2021/11/27 01:25:54;;;;;;;0.85;0.80;;;;;17.50;97274.00;;;;2064120;28;20753;-45
2021/11/27 01:26:54;;;;;;;1.53;0.87;;;;;17.50;97275.00;;;;2062294;28;20215;-45
2021/11/27 01:27:54;;;;;;;0.80;0.60;;;;;17.50;97271.00;;;;2076275;28;20743;-44
2021/11/27 01:28:55;;;;;;;0.80;0.70;;;;;17.50;97285.00;;;;2075337;28;20838;-45
2021/11/27 01:29:58;;;;;;;0.80;0.70;;;;;17.50;97282.00;;;;2069982;28;20706;-46
2021/11/27 01:30:58;;;;;;;0.85;0.60;;;;;17.50;97284.00;;;;2058034;28;20254;-46
2021/11/27 01:31:59;;;;;;;0.80;0.70;;;;;17.50;97285.00;;;;2061774;28;20254;-47
2021/11/27 01:32:59;;;;;;;1.00;0.77;;;;;17.50;97293.00;;;;2078245;28;20660;-45
2021/11/27 01:34:00;;;;;;;0.70;0.60;;;;;17.50;97296.00;;;;2072300;28;20759;-45
2021/11/27 01:35:00;;;;;;;0.60;0.57;;;;;17.40;97279.00;;;;2070669;28;20218;-48
2021/11/27 01:36:01;;;;;;;0.80;0.80;;;;;17.50;97288.00;;;;2069806;28;20210;-48
2021/11/27 01:37:02;;;;;;;1.10;0.90;;;;;17.50;97287.00;;;;2069533;28;20289;-44
2021/11/27 01:38:03;;;;;;;0.80;0.60;;;;;17.50;97283.00;;;;2075243;28;20698;-47
2021/11/27 01:39:04;;;;;;;0.90;0.60;;;;;17.50;97279.00;;;;2078113;28;21023;-45
2021/11/27 01:40:09;;;;;;;0.90;0.75;;;;;17.50;97287.00;;;;2075198;28;20313;-46
2021/11/27 01:41:11;;;;;;;0.77;0.65;;;;;17.50;97291.00;;;;2061474;28;20217;-45
2021/11/27 01:42:12;;;;;;;0.90;0.70;;;;;17.50;97280.00;;;;2062442;28;20215;-45
2021/11/27 01:43:12;;;;;;;0.90;0.70;;;;;17.50;97273.00;;;;2069724;28;20441;-44
2021/11/27 01:44:12;;;;;;;0.73;0.60;;;;;17.50;97283.00;;;;2067858;28;20218;-46
2021/11/27 01:45:15;;;;;;;0.80;0.80;;;;;17.50;97288.00;;;;2068848;28;20612;-45
2021/11/27 01:46:15;;;;;;;0.93;0.60;;;;;17.50;97284.00;;;;2070400;28;20293;-44
2021/11/27 01:47:15;;;;;;;0.80;0.60;;;;;17.50;97282.00;;;;2076978;28;20504;-45
2021/11/27 01:48:17;;;;;;;1.70;1.00;;;;;17.50;97282.00;;;;2072481;28;20753;-45
2021/11/27 01:49:17;;;;;;;0.70;0.57;;;;;17.50;97284.00;;;;2070848;28;20220;-47
2021/11/27 01:50:18;;;;;;;0.97;0.73;;;;;17.50;97276.00;;;;2070379;28;20596;-47
2021/11/27 01:51:21;;;;;;;0.85;0.73;;;;;17.50;97277.00;;;;2069599;28;20206;-47
2021/11/27 01:52:21;;;;;;;0.80;0.80;;;;;17.50;97280.00;;;;2057664;28;20306;-44
2021/11/27 01:53:22;;;;;;;0.70;0.70;;;;;17.50;97281.00;;;;2070696;28;20236;-45
2021/11/27 01:54:23;;;;;;;1.10;0.90;;;;;17.50;97290.00;;;;2077196;28;20223;-45
2021/11/27 01:55:23;;;;;;;0.93;0.50;;;;;17.50;97281.00;;;;2075387;28;20222;-45
2021/11/27 01:56:30;;;;;;;0.80;0.70;;;;;17.50;97286.00;;;;2069215;28;20764;-45
2021/11/27 01:57:30;;;;;;;1.00;0.70;;;;;17.50;97289.00;;;;2066099;28;20222;-45
2021/11/27 01:58:31;;;;;;;0.90;0.70;;;;;17.50;97290.00;;;;2079761;28;20236;-44
2021/11/27 01:59:32;;;;;;;1.07;0.80;;;;;17.50;97282.00;;;;2071407;28;20293;-46
2021/11/27 02:00:39;;;;;;;1.75;0.70;;;;;17.50;97276.00;;;;2069222;28;20210;-44
2021/11/27 02:01:40;;;;;;;1.00;0.90;;;;;17.50;97281.00;;;;2074088;28;20249;-45
2021/11/27 02:02:41;;;;;;;0.80;0.80;;;;;17.50;97280.00;;;;2077225;28;20213;-45
2021/11/27 02:03:42;;;;;;;0.80;0.60;;;;;17.50;97286.00;;;;2076764;28;20252;-46
2021/11/27 02:04:43;;;;;;;0.90;0.70;;;;;17.50;97278.00;;;;2078586;28;20530;-45
2021/11/27 02:05:43;;;;;;;0.80;0.70;;;;;17.50;97284.00;;;;2078065;28;20527;-44
2021/11/27 02:06:44;;;;;;;1.00;0.90;;;;;17.50;97280.00;;;;2077542;28;20611;-46
2021/11/27 02:07:44;;;;;;;0.90;0.80;;;;;17.50;97280.00;;;;2077089;28;20567;-45
2021/11/27 02:08:45;;;;;;;0.70;0.67;;;;;17.50;97279.00;;;;2078078;28;20228;-44
2021/11/27 02:09:46;;;;;;;0.93;0.60;;;;;17.50;97276.00;;;;2074134;28;20288;-45
2021/11/27 02:10:47;;;;;;;0.70;0.50;;;;;17.50;97286.00;;;;2068942;28;20210;-45
2021/11/27 02:11:47;;;;;;;1.37;0.63;;;;;17.50;97282.00;;;;2068674;28;20207;-44
2021/11/27 02:12:48;;;;;;;0.97;0.70;;;;;17.50;97288.00;;;;2069318;28;20781;-44
2021/11/27 02:13:48;;;;;;;1.47;0.70;;;;;17.50;97284.00;;;;2071729;28;20309;-47
2021/11/27 02:14:48;;;;;;;0.80;0.63;;;;;17.50;97288.00;;;;2078238;28;20209;-45
2021/11/27 02:15:49;;;;;;;0.80;0.60;;;;;17.50;97281.00;;;;2078179;28;20267;-47
2021/11/27 02:16:49;;;;;;;0.70;0.50;;;;;17.50;97287.00;;;;2078210;28;20209;-45
2021/11/27 02:17:50;;;;;;;0.83;0.70;;;;;17.40;97290.00;;;;2073539;28;20245;-46
2021/11/27 02:18:50;;;;;;;1.53;0.70;;;;;17.50;97287.00;;;;2069172;28;20694;-45
2021/11/27 02:19:51;;;;;;;0.90;0.57;;;;;17.50;97285.00;;;;2068209;28;20237;-45
2021/11/27 02:21:05;;;;;;;0.80;0.60;;;;;17.50;97287.00;;;;2065555;28;20214;-45
2021/11/27 02:22:06;;;;;;;0.70;0.60;;;;;17.50;97288.00;;;;2075395;28;20629;-45
2021/11/27 02:23:07;;;;;;;0.70;0.60;;;;;17.50;97285.00;;;;2076960;28;20300;-46
2021/11/27 02:24:07;;;;;;;0.87;0.60;;;;;17.50;97285.00;;;;2077065;28;20464;-45
2021/11/27 02:25:11;;;;;;;0.97;0.70;;;;;17.50;97289.00;;;;2077382;28;20336;-45
2021/11/27 02:26:14;;;;;;;0.90;0.60;;;;;17.50;97295.00;;;;2077594;28;20218;-45
2021/11/27 02:27:14;;;;;;;0.70;0.60;;;;;17.50;97284.00;;;;2069381;28;20604;-46
2021/11/27 02:28:15;;;;;;;1.00;0.80;;;;;17.50;97273.00;;;;2073801;28;20218;-48
2021/11/27 02:29:19;;;;;;;0.80;0.70;;;;;17.50;97283.00;;;;2077694;28;20307;-45
2021/11/27 02:30:21;;;;;;;1.00;0.80;;;;;17.50;97284.00;;;;2076517;28;20232;-45
2021/11/27 02:31:22;;;;;;;0.80;0.70;;;;;17.50;97282.00;;;;2077103;28;20217;-46
2021/11/27 02:32:23;;;;;;;1.10;0.68;;;;;17.50;97276.00;;;;2077953;28;20610;-45
2021/11/27 02:33:23;;;;;;;0.80;0.60;;;;;17.50;97278.00;;;;2078041;28;20304;-47
2021/11/27 02:34:23;;;;;;;0.93;0.60;;;;;17.50;97275.00;;;;2074457;28;20230;-46
2021/11/27 02:35:24;;;;;;;1.10;0.70;;;;;17.50;97276.00;;;;2077648;28;20218;-45
2021/11/27 02:36:25;;;;;;;0.80;0.60;;;;;17.50;97276.00;;;;2077125;28;20241;-45
2021/11/27 02:37:25;;;;;;;0.70;0.67;;;;;17.50;97270.00;;;;2067932;28;20225;-45
2021/11/27 02:38:25;;;;;;;0.93;0.80;;;;;17.40;97281.00;;;;2069714;28;20540;-46
2021/11/27 02:39:27;;;;;;;0.70;0.60;;;;;17.50;97274.00;;;;2068259;28;20592;-46
2021/11/27 02:40:27;;;;;;;0.70;0.60;;;;;17.40;97278.00;;;;2069636;28;20218;-46
2021/11/27 02:41:27;;;;;;;0.77;0.70;;;;;17.40;97279.00;;;;2059192;28;20222;-46
2021/11/27 02:42:28;;;;;;;0.80;0.60;;;;;17.50;97272.00;;;;2061488;28;20211;-46
2021/11/27 02:43:29;;;;;;;0.90;0.60;;;;;17.40;97272.00;;;;2077517;28;20241;-45
2021/11/27 02:44:30;;;;;;;0.83;0.60;;;;;17.40;97276.00;;;;2076266;28;20218;-47
2021/11/27 02:45:31;;;;;;;0.70;0.60;;;;;17.40;97262.00;;;;2068845;28;20218;-45
2021/11/27 02:46:31;;;;;;;0.93;0.80;;;;;17.40;97267.00;;;;2069753;28;20222;-45
2021/11/27 02:47:31;;;;;;;0.70;0.50;;;;;17.40;97272.00;;;;2061946;28;20693;-45
2021/11/27 02:48:32;;;;;;;0.70;0.60;;;;;17.40;97267.00;;;;2077893;28;20655;-47
2021/11/27 02:49:33;;;;;;;0.87;0.60;;;;;17.40;97269.00;;;;2075948;28;20206;-45
2021/11/27 02:52:30;;;;;;;0.80;0.60;;;;;17.40;97269.00;;;;2067530;28;20686;-44
2021/11/27 02:53:30;;;;;;;1.07;0.60;;;;;17.40;97266.00;;;;2070077;28;20226;-46
2021/11/27 02:54:31;;;;;;;0.80;0.70;;;;;17.40;97265.00;;;;2075926;28;20670;-45
2021/11/27 02:55:31;;;;;;;0.70;0.70;;;;;17.40;97271.00;;;;2070575;28;20292;-44
2021/11/27 02:56:32;;;;;;;0.70;0.60;;;;;17.40;97266.00;;;;2076588;28;20275;-45
2021/11/27 02:57:33;;;;;;;0.83;0.70;;;;;17.40;97261.00;;;;2071668;28;20739;-44
2021/11/27 02:58:33;;;;;;;0.80;0.60;;;;;17.40;97265.00;;;;2069794;28;20469;-45
2021/11/27 02:59:33;;;;;;;0.80;0.70;;;;;17.40;97267.00;;;;2069282;28;20229;-45
2021/11/27 03:00:34;;;;;;;0.80;0.70;;;;;17.40;97269.00;;;;2069995;28;20698;-45
2021/11/27 03:01:34;;;;;;;0.80;0.60;;;;;17.40;97266.00;;;;2076318;28;20596;-44
2021/11/27 03:02:34;;;;;;;0.70;0.60;;;;;17.20;97262.00;;;;2070426;28;20668;-45
2021/11/27 03:03:36;;;;;;;0.70;0.70;;;;;17.50;97269.00;;;;2070120;28;20218;-46
2021/11/27 03:04:36;;;;;;;0.88;0.68;;;;;17.50;97269.00;;;;2066932;28;20230;-45
2021/11/27 03:05:38;;;;;;;0.80;0.60;;;;;17.50;97269.00;;;;2071198;28;20793;-47
2021/11/27 03:06:41;;;;;;;0.98;0.70;;;;;17.50;97267.00;;;;2077567;28;20224;-46
2021/11/27 03:07:41;;;;;;;0.95;0.68;;;;;17.50;97263.00;;;;2075035;28;20220;-46
2021/11/27 03:08:41;;;;;;;0.90;0.90;;;;;17.50;97271.00;;;;2070085;28;20214;-45
2021/11/27 03:09:42;;;;;;;0.67;0.60;;;;;17.40;97265.00;;;;2077850;28;20217;-45
2021/11/27 03:10:42;;;;;;;0.70;0.47;;;;;17.40;97270.00;;;;2077547;28;20233;-46
2021/11/27 03:11:49;;;;;;;0.70;0.70;;;;;17.40;97270.00;;;;2077742;28;20210;-43
2021/11/27 03:12:51;;;;;;;1.27;0.77;;;;;17.50;97270.00;;;;2077269;28;20515;-48
2021/11/27 03:13:52;;;;;;;0.90;0.60;;;;;17.40;97263.00;;;;2079613;28;20221;-46
2021/11/27 03:14:52;;;;;;;1.00;0.90;;;;;17.40;97270.00;;;;2079783;28;20293;-44
2021/11/27 03:15:52;;;;;;;0.70;0.67;;;;;17.40;97263.00;;;;2080046;28;20284;-45
2021/11/27 03:16:55;;;;;;;0.87;0.50;;;;;17.40;97276.00;;;;2074387;28;20731;-44
2021/11/27 03:17:56;;;;;;;1.00;0.70;;;;;17.50;97271.00;;;;2071034;28;20218;-45
2021/11/27 03:18:57;;;;;;;0.70;0.50;;;;;17.40;97269.00;;;;2071134;28;20218;-45
2021/11/27 03:19:57;;;;;;;0.70;0.70;;;;;17.50;97274.00;;;;2071573;28;20221;-48
2021/11/27 03:20:57;;;;;;;1.10;0.60;;;;;17.50;97278.00;;;;2073651;28;20630;-46
2021/11/27 03:21:59;;;;;;;0.80;0.60;;;;;17.40;97271.00;;;;2071589;28;20686;-47
2021/11/27 03:22:59;;;;;;;0.70;0.52;;;;;17.50;97274.00;;;;2063009;28;20230;-47
2021/11/27 03:23:59;;;;;;;0.80;0.50;;;;;17.40;97281.00;;;;2062837;28;20219;-45
2021/11/27 03:25:00;;;;;;;0.80;0.60;;;;;17.40;97269.00;;;;2071325;28;20218;-48
2021/11/27 03:26:01;;;;;;;0.73;0.70;;;;;17.40;97279.00;;;;2070973;28;20221;-45
2021/11/27 03:27:02;;;;;;;1.00;0.70;;;;;17.40;97281.00;;;;2071254;28;20301;-45
2021/11/27 03:28:02;;;;;;;0.70;0.60;;;;;17.40;97285.00;;;;2071889;28;20238;-45
2021/11/27 03:29:03;;;;;;;0.70;0.67;;;;;17.40;97275.00;;;;2071770;28;20453;-45
2021/11/27 03:30:06;;;;;;;0.87;0.60;;;;;17.40;97285.00;;;;2078984;28;20259;-44
2021/11/27 03:31:07;;;;;;;0.80;0.60;;;;;17.40;97277.00;;;;2078939;28;20580;-44
2021/11/27 03:32:11;;;;;;;0.83;0.53;;;;;17.40;97290.00;;;;2079126;28;20231;-45
2021/11/27 03:33:11;;;;;;;1.13;0.65;;;;;17.50;97293.00;;;;2077144;28;20300;-45
2021/11/27 03:34:12;;;;;;;0.70;0.50;;;;;17.50;97297.00;;;;2078141;28;20287;-45
2021/11/27 03:35:12;;;;;;;0.77;0.60;;;;;17.40;97291.00;;;;2079474;28;20205;-47
2021/11/27 03:36:16;;;;;;;0.90;0.63;;;;;17.40;97291.00;;;;2070268;28;20377;-45
2021/11/27 03:37:16;;;;;;;0.80;0.60;;;;;17.40;97292.00;;;;2069826;28;20217;-44
2021/11/27 03:38:16;;;;;;;0.80;0.60;;;;;17.40;97296.00;;;;2076915;28;20260;-47
2021/11/27 03:39:17;;;;;;;0.90;0.53;;;;;17.40;97290.00;;;;2076607;28;20229;-46
2021/11/27 03:40:17;;;;;;;0.87;0.60;;;;;17.40;97291.00;;;;2071195;28;20225;-46
2021/11/27 03:41:18;;;;;;;1.00;0.83;;;;;17.40;97289.00;;;;2068409;28;20249;-44
2021/11/27 03:42:19;;;;;;;0.60;0.50;;;;;17.40;97295.00;;;;2071243;28;20229;-45
2021/11/27 03:43:19;;;;;;;0.70;0.53;;;;;17.40;97303.00;;;;2071065;28;20253;-46
2021/11/27 03:44:19;;;;;;;0.73;0.63;;;;;17.40;97299.00;;;;2069305;28;20488;-46
2021/11/27 03:45:20;;;;;;;0.90;0.60;;;;;17.40;97294.00;;;;2073156;28;20222;-45
2021/11/27 03:46:21;;;;;;;1.03;0.53;;;;;17.40;97297.00;;;;2071128;28;20222;-44
2021/11/27 03:47:21;;;;;;;0.70;0.53;;;;;17.40;97293.00;;;;2071901;28;20511;-45
2021/11/27 03:48:27;;;;;;;0.70;0.50;;;;;17.40;97307.00;;;;2071721;28;20306;-45
2021/11/27 03:49:28;;;;;;;0.80;0.60;;;;;17.40;97308.00;;;;2070760;28;20329;-45
2021/11/27 03:50:41;;;;;;;0.70;0.70;;;;;17.40;97304.00;;;;2068870;28;20972;-44
2021/11/27 03:51:42;;;;;;;0.70;0.60;;;;;17.40;97306.00;;;;2077427;28;20218;-46
2021/11/27 03:52:43;;;;;;;0.77;0.77;;;;;17.40;97316.00;;;;2079510;28;20245;-45
2021/11/27 03:53:43;;;;;;;0.73;0.50;;;;;17.40;97313.00;;;;2075619;28;20214;-45
2021/11/27 03:54:44;;;;;;;0.80;0.80;;;;;17.40;97313.00;;;;2075438;28;20214;-46
2021/11/27 03:55:44;;;;;;;0.80;0.60;;;;;17.40;97313.00;;;;2079717;28;20248;-44
2021/11/27 03:56:45;;;;;;;1.53;0.67;;;;;17.40;97311.00;;;;2074103;28;20468;-45
2021/11/27 03:57:46;;;;;;;1.47;0.67;;;;;17.40;97321.00;;;;2071666;28;20241;-44
2021/11/27 03:58:46;;;;;;;0.70;0.60;;;;;17.40;97313.00;;;;2071512;28;21749;-45
2021/11/27 03:59:47;;;;;;;0.73;0.60;;;;;17.40;97309.00;;;;2074187;28;20482;-44
2021/11/27 04:00:47;;;;;;;0.60;0.50;;;;;17.50;97316.00;;;;2078863;28;20300;-43
2021/11/27 04:01:48;;;;;;;0.80;0.67;;;;;17.40;97315.00;;;;2078721;28;20697;-45
2021/11/27 04:02:49;;;;;;;0.90;0.70;;;;;17.40;97331.00;;;;2078533;28;20876;-47
2021/11/27 04:03:51;;;;;;;0.70;0.60;;;;;17.40;97330.00;;;;2079182;28;20852;-44
2021/11/27 04:04:51;;;;;;;0.70;0.60;;;;;17.40;97322.00;;;;2078798;28;20614;-44
2021/11/27 04:05:54;;;;;;;0.80;0.60;;;;;17.40;97328.00;;;;2070499;28;20301;-45
2021/11/27 04:06:55;;;;;;;0.70;0.68;;;;;17.40;97327.00;;;;2078620;28;20225;-46
2021/11/27 04:07:56;;;;;;;0.70;0.57;;;;;17.40;97327.00;;;;2073506;28;20742;-45
2021/11/27 04:08:59;;;;;;;0.80;0.70;;;;;17.40;97332.00;;;;2074302;28;20629;-45
2021/11/27 04:10:00;;;;;;;0.60;0.50;;;;;17.40;97326.00;;;;2068557;28;20225;-46
2021/11/27 04:11:00;;;;;;;0.60;0.60;;;;;17.40;97341.00;;;;2077903;28;20245;-45
2021/11/27 04:12:00;;;;;;;0.80;0.70;;;;;17.40;97338.00;;;;2078650;28;20292;-46
2021/11/27 04:13:01;;;;;;;0.80;0.70;;;;;17.40;97338.00;;;;2075475;28;20244;-45
2021/11/27 04:14:02;;;;;;;1.37;0.67;;;;;17.40;97342.00;;;;2073144;28;20217;-46
2021/11/27 04:15:03;;;;;;;0.60;0.60;;;;;17.40;97343.00;;;;2075042;28;20209;-45
2021/11/27 04:16:04;;;;;;;0.70;0.50;;;;;17.40;97348.00;;;;2078044;28;20634;-45
2021/11/27 04:17:04;;;;;;;0.70;0.50;;;;;17.50;97353.00;;;;2070997;28;20812;-45
2021/11/27 04:18:05;;;;;;;0.60;0.60;;;;;17.50;97341.00;;;;2078972;28;20344;-45
2021/11/27 04:19:05;;;;;;;0.60;0.60;;;;;17.40;97348.00;;;;2076646;28;20797;-45
2021/11/27 04:20:06;;;;;;;0.67;0.60;;;;;17.40;97347.00;;;;2070737;28;20214;-45
2021/11/27 04:21:06;;;;;;;0.80;0.70;;;;;17.50;97349.00;;;;2070693;28;20871;-45
2021/11/27 04:22:07;;;;;;;0.70;0.57;;;;;17.40;97344.00;;;;2071110;28;20220;-44
2021/11/27 04:23:07;;;;;;;0.80;0.80;;;;;17.50;97342.00;;;;2072277;28;20215;-46
2021/11/27 04:24:08;;;;;;;0.93;0.82;;;;;17.50;97344.00;;;;2076827;28;20210;-44
2021/11/27 04:25:08;;;;;;;1.00;0.70;;;;;17.50;97349.00;;;;2073697;28;20255;-45
2021/11/27 04:26:09;;;;;;;0.80;0.60;;;;;17.50;97352.00;;;;2079602;28;20217;-47
2021/11/27 04:27:09;;;;;;;1.00;0.70;;;;;17.50;97354.00;;;;2079501;28;20893;-46
2021/11/27 04:28:10;;;;;;;0.70;0.67;;;;;17.50;97359.00;;;;2066304;28;20285;-44
2021/11/27 04:29:10;;;;;;;1.30;0.67;;;;;17.40;97354.00;;;;2075241;28;20255;-45
2021/11/27 04:30:14;;;;;;;0.70;0.60;;;;;17.50;97359.00;;;;2071154;28;20233;-44
2021/11/27 04:31:18;;;;;;;0.70;0.60;;;;;17.40;97363.00;;;;2073459;28;20201;-45
2021/11/27 04:32:18;;;;;;;0.90;0.68;;;;;17.40;97363.00;;;;2075319;28;20679;-45
2021/11/27 04:33:19;;;;;;;0.77;0.57;;;;;17.50;97362.00;;;;2071322;28;20222;-46
2021/11/27 04:34:19;;;;;;;0.80;0.60;;;;;17.50;97367.00;;;;2072917;28;20237;-46
2021/11/27 04:35:21;;;;;;;0.80;0.60;;;;;17.50;97366.00;;;;2078926;28;20700;-45
2021/11/27 04:36:21;;;;;;;1.13;0.80;;;;;17.50;97370.00;;;;2078855;28;20217;-44
2021/11/27 04:37:22;;;;;;;0.70;0.57;;;;;17.50;97374.00;;;;2078428;28;20722;-46
2021/11/27 04:38:22;;;;;;;0.63;0.53;;;;;17.50;97376.00;;;;2079213;28;20210;-44
2021/11/27 04:39:22;;;;;;;0.70;0.70;;;;;17.40;97370.00;;;;2079348;28;20214;-45
2021/11/27 04:40:23;;;;;;;0.90;0.70;;;;;17.50;97379.00;;;;2078869;28;20298;-45
2021/11/27 04:41:24;;;;;;;0.90;0.70;;;;;17.40;97387.00;;;;2079126;28;20242;-45
2021/11/27 04:42:24;;;;;;;0.70;0.60;;;;;17.50;97382.00;;;;2079484;28;20625;-46
2021/11/27 04:43:24;;;;;;;0.60;0.50;;;;;17.50;97382.00;;;;2078997;28;20460;-46
2021/11/27 04:44:25;;;;;;;0.67;0.60;;;;;17.50;97382.00;;;;2079290;28;20232;-44
2021/11/27 04:45:25;;;;;;;0.77;0.70;;;;;17.50;97394.00;;;;2079367;28;20213;-45
2021/11/27 04:46:25;;;;;;;0.80;0.60;;;;;17.40;97389.00;;;;2076701;28;20213;-43
2021/11/27 04:47:26;;;;;;;0.70;0.63;;;;;17.40;97391.00;;;;2071229;28;20214;-44
2021/11/27 04:48:26;;;;;;;0.90;0.50;;;;;17.40;97399.00;;;;2071311;28;20214;-45
2021/11/27 04:49:26;;;;;;;0.70;0.60;;;;;17.40;97403.00;;;;2078186;28;20214;-46
2021/11/27 04:50:27;;;;;;;0.67;0.60;;;;;17.40;97402.00;;;;2077603;28;20205;-45
2021/11/27 04:51:28;;;;;;;0.70;0.50;;;;;17.50;97406.00;;;;2073921;28;20233;-45
2021/11/27 04:52:28;;;;;;;0.70;0.60;;;;;17.40;97401.00;;;;2070951;28;20224;-44
2021/11/27 04:53:28;;;;;;;0.80;0.60;;;;;17.40;97401.00;;;;2077905;28;20252;-44
2021/11/27 04:54:29;;;;;;;0.77;0.63;;;;;17.40;97412.00;;;;2078869;28;20367;-48
2021/11/27 04:55:30;;;;;;;1.00;0.70;;;;;17.40;97410.00;;;;2071334;28;20214;-46
2021/11/27 04:56:30;;;;;;;1.05;0.80;;;;;17.40;97405.00;;;;2076085;28;20580;-45
2021/11/27 04:57:31;;;;;;;0.80;0.60;;;;;17.40;97409.00;;;;2073782;28;20218;-46
2021/11/27 04:58:31;;;;;;;1.03;0.70;;;;;17.40;97415.00;;;;2070452;28;20214;-45
2021/11/27 04:59:31;;;;;;;0.70;0.50;;;;;17.50;97416.00;;;;2073616;28;20755;-45
2021/11/27 05:00:37;;;;;;;0.87;0.60;;;;;17.40;97406.00;;;;2070988;28;20584;-44
2021/11/27 05:01:38;;;;;;;0.73;0.70;;;;;17.40;97415.00;;;;2070820;28;20650;-45
2021/11/27 05:02:38;;;;;;;0.73;0.73;;;;;17.40;97418.00;;;;2072979;28;20218;-48
2021/11/27 05:03:39;;;;;;;1.00;0.67;;;;;17.40;97419.00;;;;2078972;28;20471;-47
2021/11/27 05:04:39;;;;;;;0.70;0.50;;;;;17.40;97419.00;;;;2079156;28;20239;-46
2021/11/27 05:05:40;;;;;;;0.70;0.67;;;;;17.40;97420.00;;;;2071404;28;20229;-46
2021/11/27 05:06:40;;;;;;;1.10;0.90;;;;;17.40;97420.00;;;;2071115;28;20226;-45
2021/11/27 05:07:40;;;;;;;0.90;0.80;;;;;17.40;97425.00;;;;2079234;28;20264;-44
2021/11/27 05:08:41;;;;;;;1.73;0.60;;;;;17.40;97430.00;;;;2074609;28;20218;-45